Time;durP1;ratioP1;P1;durP2;ratioP2;P2;SDS_P1;SDS_P2;PMS_P1;PMS_P2;Temp;Humidity;BMP_temperature;BMP_pressure;BME280_temperature;BME280_humidity;BME280_pressure;Samples;Min_cycle;Max_cycle;Signal;HPM_P1;HPM_P2
2022/08/02 00:00:20;;;;;;;;;;;;;;;23.11;54.94;99935.63;1090438;46;19949;-78
2022/08/02 00:01:21;;;;;;;;;;;;;;;23.08;55.37;99935.25;1088442;54;19949;-77
2022/08/02 00:02:28;;;;;;;;;;;;;;;23.15;54.94;99939.53;1088411;54;19947;-78
2022/08/02 00:03:29;;;;;;;;;;;;;;;23.25;54.77;99943.63;1088419;54;19954;-78
2022/08/02 00:04:33;;;;;;;;;;;;;;;23.22;55.05;99944.94;1088332;54;19927;-79
2022/08/02 00:05:34;;;;;;;;;;;;;;;23.13;55.17;99944.41;1088357;54;19942;-78
2022/08/02 00:06:39;;;;;;;;;;;;;;;23.10;55.04;99939.41;1088438;54;20664;-78
2022/08/02 00:07:40;;;;;;;;;;;;;;;23.05;54.71;99936.53;1088423;54;19942;-80
2022/08/02 00:08:44;;;;;;;;;;;;;;;23.11;54.66;99935.63;1088387;54;19950;-80
2022/08/02 00:09:45;;;;;;;;;;;;;;;23.09;54.99;99940.47;1088294;54;20636;-79
2022/08/02 00:10:49;;;;;;;;;;;;;;;22.99;55.32;99941.03;1088324;54;20589;-79
2022/08/02 00:11:50;;;;;;;;;;;;;;;23.07;54.94;99937.16;1088433;54;19942;-80
2022/08/02 00:12:55;;;;;;;;;;;;;;;23.09;54.58;99940.47;1088261;54;19942;-79
2022/08/02 00:13:56;;;;;;;;;;;;;;;23.15;54.32;99939.53;1088409;46;19942;-78
2022/08/02 00:15:00;;;;;;;;;;;;;;;23.12;55.01;99941.91;1088173;54;20003;-80
2022/08/02 00:16:01;;;;;;;;;;;;;;;23.10;54.68;99939.41;1088835;46;19922;-83
2022/08/02 00:17:06;;;;;;;;;;;;;;;23.17;54.58;99931.97;1088588;46;19963;-78
2022/08/02 00:18:10;;;;;;;;;;;;;;;23.24;54.19;99931.09;1088491;54;19950;-80
2022/08/02 00:19:13;;;;;;;;;;;;;;;23.28;54.23;99935.00;1088485;54;19926;-78
2022/08/02 00:20:15;;;;;;;;;;;;;;;23.27;54.58;99925.16;1088497;54;19942;-80
2022/08/02 00:21:18;;;;;;;;;;;;;;;23.25;54.93;99928.13;1088497;54;19954;-78
2022/08/02 00:22:19;;;;;;;;;;;;;;;23.23;55.00;99927.53;1088447;54;19942;-80
2022/08/02 00:23:23;;;;;;;;;;;;;;;23.24;55.02;99926.47;1090142;46;19943;-78
2022/08/02 00:24:25;;;;;;;;;;;;;;;23.21;55.47;99929.66;1090594;46;19939;-78
2022/08/02 00:25:28;;;;;;;;;;;;;;;23.20;55.18;99926.09;1088444;54;19942;-79
2022/08/02 00:26:30;;;;;;;;;;;;;;;23.06;56.37;99930.03;1088427;54;19927;-78
2022/08/02 00:27:33;;;;;;;;;;;;;;;23.07;56.17;99928.97;1088463;54;19978;-76
2022/08/02 00:28:35;;;;;;;;;;;;;;;23.05;56.47;99925.63;1088361;54;19942;-77
2022/08/02 00:29:39;;;;;;;;;;;;;;;23.09;56.60;99934.22;1088006;54;19990;-73
2022/08/02 00:30:40;;;;;;;;;;;;;;;22.99;57.29;99938.31;1084213;54;20046;-74
2022/08/02 00:31:44;;;;;;;;;;;;;;;23.03;56.65;99927.78;1083774;54;19973;-73
2022/08/02 00:32:45;;;;;;;;;;;;;;;23.03;57.04;99930.50;1084409;54;19962;-73
2022/08/02 00:33:52;;;;;;;;;;;;;;;23.06;56.60;99930.88;1084699;54;20058;-77
2022/08/02 00:35:58;;;;;;;;;;;;;;;22.68;59.11;99937.44;1084323;54;20436;-78
2022/08/02 00:37:00;;;;;;;;;;;;;;;22.72;58.74;99943.25;1084485;54;20508;-78
2022/08/02 00:38:04;;;;;;;;;;;;;;;22.78;58.78;99936.06;1084683;54;20441;-77
2022/08/02 00:39:05;;;;;;;;;;;;;;;22.81;58.11;99933.69;1084892;54;19953;-77
2022/08/02 00:40:10;;;;;;;;;;;;;;;22.84;57.78;99937.84;1084575;54;20467;-78
2022/08/02 00:41:12;;;;;;;;;;;;;;;22.85;57.88;99943.09;1084977;54;19954;-77
2022/08/02 00:42:16;;;;;;;;;;;;;;;22.89;57.82;99933.38;1084652;54;19946;-78
2022/08/02 00:43:18;;;;;;;;;;;;;;;22.90;57.62;99935.06;1084652;54;19946;-78
2022/08/02 00:44:22;;;;;;;;;;;;;;;22.93;57.71;99932.94;1084728;54;19957;-77
2022/08/02 00:45:23;;;;;;;;;;;;;;;22.89;57.69;99932.56;1085622;54;19946;-77
2022/08/02 00:46:27;;;;;;;;;;;;;;;22.91;57.76;99933.16;1085426;54;20050;-77
2022/08/02 00:47:28;;;;;;;;;;;;;;;22.88;58.34;99942.63;1085115;54;19939;-79
2022/08/02 00:48:32;;;;;;;;;;;;;;;22.85;58.03;99932.19;1084917;54;19950;-77
2022/08/02 00:49:38;;;;;;;;;;;;;;;22.86;58.11;99939.28;1083491;54;19973;-77
2022/08/02 00:50:40;;;;;;;;;;;;;;;22.84;58.27;99935.97;1083383;54;19969;-76
2022/08/02 00:51:43;;;;;;;;;;;;;;;22.83;58.47;99938.91;1084875;54;19946;-77
2022/08/02 00:52:45;;;;;;;;;;;;;;;22.84;57.97;99938.72;1084360;54;19939;-78
2022/08/02 00:53:48;;;;;;;;;;;;;;;22.85;58.02;99932.19;1084302;54;19951;-79
2022/08/02 00:54:50;;;;;;;;;;;;;;;22.81;58.74;99943.78;1084525;54;19946;-77
2022/08/02 00:55:54;;;;;;;;;;;;;;;22.77;58.34;99937.94;1085408;39;20353;-77
2022/08/02 00:56:55;;;;;;;;;;;;;;;22.79;58.30;99935.81;1085214;54;19951;-77
2022/08/02 00:57:59;;;;;;;;;;;;;;;22.80;58.43;99934.75;1085326;54;19977;-77
2022/08/02 00:59:00;;;;;;;;;;;;;;;22.74;59.15;99936.50;1083939;54;19969;-77
2022/08/02 01:00:05;;;;;;;;;;;;;;;22.59;59.72;99939.59;1083754;54;19958;-78
2022/08/02 01:01:06;;;;;;;;;;;;;;;22.44;60.03;99939.97;1084019;54;20432;-77
2022/08/02 01:02:10;;;;;;;;;;;;;;;22.52;59.59;99932.59;1084930;39;20594;-78
2022/08/02 01:03:11;;;;;;;;;;;;;;;22.59;59.42;99934.16;1084203;54;19946;-77
2022/08/02 01:04:15;;;;;;;;;;;;;;;22.59;59.56;99936.88;1083951;54;19939;-76
2022/08/02 01:05:19;;;;;;;;;;;;;;;22.49;59.99;99943.94;1083783;54;19946;-77
2022/08/02 01:06:23;;;;;;;;;;;;;;;22.49;59.68;99944.75;1083260;54;19947;-77
2022/08/02 01:07:24;;;;;;;;;;;;;;;22.38;60.14;99943.59;1083105;54;19946;-77
2022/08/02 01:08:29;;;;;;;;;;;;;;;22.44;59.96;99947.31;1083192;54;19954;-75
2022/08/02 01:09:31;;;;;;;;;;;;;;;22.50;59.73;99945.59;1083296;54;19954;-76
2022/08/02 01:10:35;;;;;;;;;;;;;;;22.39;60.21;99944.41;1083438;54;19953;-77
2022/08/02 01:11:39;;;;;;;;;;;;;;;22.37;60.17;99946.53;1083417;54;19969;-77
2022/08/02 01:12:40;;;;;;;;;;;;;;;22.32;60.68;99949.09;1083499;54;19951;-77
2022/08/02 01:13:45;;;;;;;;;;;;;;;22.23;61.06;99951.28;1083589;54;19950;-78
2022/08/02 01:14:48;;;;;;;;;;;;;;;22.23;60.86;99951.28;1083676;54;19957;-78
2022/08/02 01:15:57;;;;;;;;;;;;;;;22.32;60.66;99949.09;1083747;54;19954;-75
2022/08/02 01:17:00;;;;;;;;;;;;;;;22.22;60.92;99952.34;1083815;54;19973;-77
2022/08/02 01:18:08;;;;;;;;;;;;;;;22.26;60.99;99948.09;1084069;39;20325;-77
2022/08/02 01:19:20;;;;;;;;;;;;;;;22.36;60.51;99950.31;1083661;54;19938;-77
2022/08/02 01:20:37;;;;;;;;;;;;;;;22.40;60.09;99954.28;1083564;54;19938;-76
2022/08/02 01:21:44;;;;;;;;;;;;;;;22.44;59.93;99953.59;1084081;39;20431;-78
2022/08/02 01:22:55;;;;;;;;;;;;;;;22.46;60.02;99956.13;1083900;54;20043;-78
2022/08/02 01:24:03;;;;;;;;;;;;;;;22.47;59.79;99956.94;1083753;54;19947;-78
2022/08/02 01:25:14;;;;;;;;;;;;;;;22.39;60.28;99949.84;1083599;54;19947;-80
2022/08/02 01:26:28;;;;;;;;;;;;;;;22.31;60.60;99959.16;1083627;54;19994;-77
2022/08/02 01:27:36;;;;;;;;;;;;;;;22.25;60.76;99955.44;1084062;54;19952;-77
2022/08/02 01:28:45;;;;;;;;;;;;;;;22.22;61.16;99955.88;1084321;54;19946;-77
2022/08/02 01:29:49;;;;;;;;;;;;;;;22.25;60.81;99960.88;1084265;39;20343;-76
2022/08/02 01:30:56;;;;;;;;;;;;;;;22.25;60.97;99954.59;1083968;54;19975;-79
2022/08/02 01:32:01;;;;;;;;;;;;;;;22.28;60.91;99951.44;1083846;54;19947;-77
2022/08/02 01:33:06;;;;;;;;;;;;;;;22.33;60.47;99953.47;1084501;54;20464;-80
2022/08/02 01:34:11;;;;;;;;;;;;;;;22.32;60.48;99969.00;1083592;54;19954;-77
2022/08/02 01:35:17;;;;;;;;;;;;;;;22.31;60.73;99961.03;1083917;54;20421;-78
2022/08/02 01:36:19;;;;;;;;;;;;;;;22.29;60.72;99962.09;1084147;54;19961;-78
2022/08/02 01:37:24;;;;;;;;;;;;;;;22.22;61.12;99963.22;1084298;39;20324;-77
2022/08/02 01:38:28;;;;;;;;;;;;;;;22.17;61.38;99961.19;1084018;54;19947;-78
2022/08/02 01:39:35;;;;;;;;;;;;;;;22.14;61.31;99958.91;1083934;54;20445;-78
2022/08/02 01:40:36;;;;;;;;;;;;;;;22.08;61.55;99960.63;1083938;54;19946;-76
2022/08/02 01:41:40;;;;;;;;;;;;;;;21.98;62.17;99965.72;1083479;54;19985;-78
2022/08/02 01:42:44;;;;;;;;;;;;;;;22.03;61.75;99965.91;1083578;54;19946;-79
2022/08/02 01:43:53;;;;;;;;;;;;;;;22.07;61.40;99966.28;1083780;54;19970;-78
2022/08/02 01:44:55;;;;;;;;;;;;;;;22.14;61.15;99969.78;1084159;54;19986;-78
2022/08/02 01:46:00;;;;;;;;;;;;;;;22.18;60.82;99960.13;1084406;54;20460;-80
2022/08/02 01:47:03;;;;;;;;;;;;;;;22.21;60.72;99964.28;1084457;46;19962;-80
2022/08/02 01:48:07;;;;;;;;;;;;;;;22.04;61.80;99974.88;1084180;54;20449;-77
2022/08/02 01:49:11;;;;;;;;;;;;;;;21.94;61.76;99972.69;1084085;54;19970;-77
2022/08/02 01:50:17;;;;;;;;;;;;;;;21.84;62.51;99978.59;1084084;54;20467;-77
2022/08/02 01:51:19;;;;;;;;;;;;;;;21.84;62.31;99975.88;1083901;54;19970;-77
2022/08/02 01:52:47;;;;;;;;;;;;;;;21.74;62.71;99975.53;1083688;54;19950;-78
2022/08/02 01:53:49;;;;;;;;;;;;;;;21.76;62.46;99973.44;1083901;54;19951;-77
2022/08/02 01:54:55;;;;;;;;;;;;;;;21.80;62.58;99974.66;1083762;54;19938;-77
2022/08/02 01:55:58;;;;;;;;;;;;;;;21.73;63.12;99976.59;1083994;54;19959;-77
2022/08/02 01:57:04;;;;;;;;;;;;;;;21.86;62.09;99973.78;1084681;54;19981;-78
2022/08/02 01:58:09;;;;;;;;;;;;;;;21.91;62.19;99976.69;1085057;54;19939;-78
2022/08/02 01:59:15;;;;;;;;;;;;;;;21.90;62.19;99969.56;1084872;47;19946;-78
2022/08/02 02:00:21;;;;;;;;;;;;;;;21.95;61.63;99975.16;1084685;54;19946;-78
2022/08/02 02:01:22;;;;;;;;;;;;;;;22.02;60.99;99979.72;1084244;54;19946;-78
2022/08/02 02:02:28;;;;;;;;;;;;;;;22.04;60.98;99980.34;1086311;54;19950;-77
2022/08/02 02:03:30;;;;;;;;;;;;;;;21.93;61.76;99979.19;1085979;54;19951;-78
2022/08/02 02:04:36;;;;;;;;;;;;;;;21.69;62.71;99986.25;1086111;54;19947;-76
2022/08/02 02:05:38;;;;;;;;;;;;;;;21.60;62.85;99986.53;1085682;54;20718;-77
2022/08/02 02:06:44;;;;;;;;;;;;;;;21.58;62.88;99987.78;1086037;54;19946;-78
2022/08/02 02:07:48;;;;;;;;;;;;;;;21.49;63.42;99990.72;1085809;39;20337;-78
2022/08/02 02:08:53;;;;;;;;;;;;;;;21.44;63.56;99990.56;1085372;54;19973;-77
2022/08/02 02:09:58;;;;;;;;;;;;;;;21.43;63.57;99998.94;1085199;54;19951;-76
2022/08/02 02:11:00;;;;;;;;;;;;;;;21.40;63.83;99993.94;1085569;54;19958;-78
2022/08/02 02:12:04;;;;;;;;;;;;;;;21.33;63.83;99993.97;1083980;54;20002;-78
2022/08/02 02:13:06;;;;;;;;;;;;;;;21.35;63.75;99995.41;1083905;54;19957;-77
2022/08/02 02:14:11;;;;;;;;;;;;;;;21.44;63.38;99998.72;1083627;54;19954;-78
2022/08/02 02:15:16;;;;;;;;;;;;;;;21.40;63.48;99991.22;1083532;54;19957;-77
2022/08/02 02:16:21;;;;;;;;;;;;;;;21.31;64.25;99996.91;1084035;39;20364;-78
2022/08/02 02:17:23;;;;;;;;;;;;;;;21.39;64.02;99997.69;1083104;54;19974;-79
2022/08/02 02:18:28;;;;;;;;;;;;;;;21.35;63.73;99992.69;1083093;54;19946;-81
2022/08/02 02:19:29;;;;;;;;;;;;;;;21.32;64.05;99982.25;1083279;54;19951;-79
2022/08/02 02:20:33;;;;;;;;;;;;;;;21.35;63.90;99984.53;1083540;54;19950;-77
2022/08/02 02:21:34;;;;;;;;;;;;;;;21.41;63.53;99982.00;1083925;54;19970;-78
2022/08/02 02:22:38;;;;;;;;;;;;;;;21.41;63.53;99984.72;1084793;54;19962;-79
2022/08/02 02:23:39;;;;;;;;;;;;;;;21.48;63.00;99983.66;1084994;54;19939;-80
2022/08/02 02:24:43;;;;;;;;;;;;;;;21.47;63.51;99983.84;1084396;54;19951;-80
2022/08/02 02:25:45;;;;;;;;;;;;;;;21.43;63.55;99982.63;1084155;54;19947;-80
2022/08/02 02:26:49;;;;;;;;;;;;;;;21.44;63.44;99987.03;1083840;54;19951;-78
2022/08/02 02:27:53;;;;;;;;;;;;;;;21.40;63.47;99991.22;1084911;54;19947;-77
2022/08/02 02:28:57;;;;;;;;;;;;;;;21.32;64.01;99984.13;1085033;54;19950;-78
2022/08/02 02:29:59;;;;;;;;;;;;;;;21.34;64.06;99984.75;1084884;54;19951;-78
2022/08/02 02:31:08;;;;;;;;;;;;;;;21.35;63.95;99983.72;1084645;54;19953;-79
2022/08/02 02:32:09;;;;;;;;;;;;;;;21.26;64.11;99985.81;1085083;46;19969;-77
2022/08/02 02:33:15;;;;;;;;;;;;;;;21.23;64.18;99980.00;1083702;54;19947;-77
2022/08/02 02:34:22;;;;;;;;;;;;;;;21.17;64.80;99978.97;1083586;54;19947;-78
2022/08/02 02:35:29;;;;;;;;;;;;;;;21.12;65.14;99974.19;1082794;54;19970;-77
2022/08/02 02:36:32;;;;;;;;;;;;;;;21.10;64.81;99972.75;1083325;54;19946;-78
2022/08/02 02:37:36;;;;;;;;;;;;;;;21.08;64.87;99977.56;1083540;54;19953;-77
2022/08/02 02:38:39;;;;;;;;;;;;;;;21.03;64.98;99973.63;1084886;54;19939;-78
2022/08/02 02:39:43;;;;;;;;;;;;;;;20.99;65.49;99972.38;1085313;54;19950;-77
2022/08/02 02:40:45;;;;;;;;;;;;;;;21.02;65.56;99969.22;1085794;54;19951;-77
2022/08/02 02:41:49;;;;;;;;;;;;;;;21.07;65.09;99965.00;1085325;54;20504;-78
2022/08/02 02:42:50;;;;;;;;;;;;;;;21.14;64.62;99965.84;1085198;54;19939;-77
2022/08/02 02:43:55;;;;;;;;;;;;;;;21.25;64.25;99967.88;1085663;54;20405;-78
2022/08/02 02:44:58;;;;;;;;;;;;;;;21.30;63.94;99964.50;1085353;54;20719;-77
2022/08/02 02:46:06;;;;;;;;;;;;;;;21.34;63.44;99963.00;1085381;54;19950;-77
2022/08/02 02:47:09;;;;;;;;;;;;;;;21.40;63.08;99958.59;1085440;54;20461;-78
2022/08/02 02:48:15;;;;;;;;;;;;;;;21.40;63.36;99959.41;1085782;54;19939;-78
2022/08/02 02:49:18;;;;;;;;;;;;;;;21.43;63.21;99958.16;1086239;54;20043;-78
2022/08/02 02:50:22;;;;;;;;;;;;;;;21.46;62.88;99960.41;1086376;54;19950;-78
2022/08/02 02:51:23;;;;;;;;;;;;;;;21.47;62.63;99956.66;1086167;54;19954;-78
2022/08/02 02:52:28;;;;;;;;;;;;;;;21.41;63.05;99960.25;1085600;54;19973;-78
2022/08/02 02:53:29;;;;;;;;;;;;;;;21.43;62.85;99953.53;1085359;54;20623;-78
2022/08/02 02:54:34;;;;;;;;;;;;;;;21.47;62.47;99959.38;1084979;54;20722;-78
2022/08/02 02:55:36;;;;;;;;;;;;;;;21.47;62.66;99962.94;1085581;47;19974;-78
2022/08/02 02:56:42;;;;;;;;;;;;;;;21.32;63.35;99956.94;1085416;54;19961;-78
2022/08/02 02:57:43;;;;;;;;;;;;;;;21.25;63.28;99957.00;1085580;54;19938;-77
2022/08/02 02:58:48;;;;;;;;;;;;;;;21.14;63.94;99955.78;1085677;54;20455;-78
2022/08/02 02:59:50;;;;;;;;;;;;;;;21.12;64.02;99962.50;1085504;54;19947;-77
2022/08/02 03:02:13;;;;;;;;;;;;;;;21.11;64.00;99960.81;1085592;54;19974;-78
2022/08/02 03:03:14;;;;;;;;;;;;;;;21.03;64.41;99960.03;1085590;54;19970;-77
2022/08/02 03:04:18;;;;;;;;;;;;;;;21.01;64.21;99956.69;1085572;54;19951;-77
2022/08/02 03:05:19;;;;;;;;;;;;;;;20.96;64.80;99959.22;1085336;54;19950;-78
2022/08/02 03:06:23;;;;;;;;;;;;;;;20.97;64.86;99960.88;1085388;54;20062;-77
2022/08/02 03:07:27;;;;;;;;;;;;;;;20.92;64.98;99963.41;1085297;54;19953;-77
2022/08/02 03:08:29;;;;;;;;;;;;;;;20.86;65.20;99958.84;1086415;39;20360;-77
2022/08/02 03:09:32;;;;;;;;;;;;;;;20.86;65.04;99956.13;1085401;54;19946;-77
2022/08/02 03:10:34;;;;;;;;;;;;;;;20.86;65.47;99965.09;1084850;54;19977;-77
2022/08/02 03:11:38;;;;;;;;;;;;;;;20.85;65.37;99963.44;1084905;54;20054;-79
2022/08/02 03:12:42;;;;;;;;;;;;;;;20.86;65.40;99961.56;1085016;54;19947;-77
2022/08/02 03:13:43;;;;;;;;;;;;;;;20.81;65.62;99961.38;1085548;54;19938;-77
2022/08/02 03:14:47;;;;;;;;;;;;;;;20.78;66.01;99969.97;1085264;54;19969;-77
2022/08/02 03:15:52;;;;;;;;;;;;;;;20.77;65.67;99965.56;1084931;54;19946;-77
2022/08/02 03:16:56;;;;;;;;;;;;;;;20.76;66.07;99963.91;1085034;54;19946;-77
2022/08/02 03:18:00;;;;;;;;;;;;;;;20.72;66.13;99964.28;1085392;54;19939;-77
2022/08/02 03:19:04;;;;;;;;;;;;;;;20.77;66.22;99965.56;1085479;54;19942;-77
2022/08/02 03:20:08;;;;;;;;;;;;;;;20.84;65.66;99960.94;1085246;54;19945;-77
2022/08/02 03:21:12;;;;;;;;;;;;;;;20.84;65.59;99961.75;1085335;54;19951;-77
2022/08/02 03:22:13;;;;;;;;;;;;;;;20.82;65.67;99960.31;1085306;54;19962;-77
2022/08/02 03:23:17;;;;;;;;;;;;;;;20.79;65.54;99972.44;1085568;54;19955;-78
2022/08/02 03:24:19;;;;;;;;;;;;;;;20.70;66.20;99963.66;1085335;54;19951;-77
2022/08/02 03:25:22;;;;;;;;;;;;;;;20.64;66.17;99972.66;1085594;46;19955;-78
2022/08/02 03:26:24;;;;;;;;;;;;;;;20.65;66.38;99968.91;1085475;54;19938;-78
2022/08/02 03:27:28;;;;;;;;;;;;;;;20.65;66.21;99966.19;1085342;54;19946;-77
2022/08/02 03:28:30;;;;;;;;;;;;;;;20.63;66.41;99970.19;1085253;39;20380;-78
2022/08/02 03:29:33;;;;;;;;;;;;;;;20.68;66.14;99962.22;1084495;54;19946;-77
2022/08/02 03:30:35;;;;;;;;;;;;;;;20.69;66.08;99964.69;1084885;54;19950;-77
2022/08/02 03:31:41;;;;;;;;;;;;;;;20.73;65.61;99967.84;1084902;54;19946;-77
2022/08/02 03:32:43;;;;;;;;;;;;;;;20.72;65.93;99968.91;1085718;39;20364;-77
2022/08/02 03:33:51;;;;;;;;;;;;;;;20.69;66.02;99972.03;1085414;54;19951;-78
2022/08/02 03:34:52;;;;;;;;;;;;;;;20.69;65.66;99969.31;1085776;39;20349;-77
2022/08/02 03:35:58;;;;;;;;;;;;;;;20.66;65.77;99981.44;1085111;54;19953;-77
2022/08/02 03:37:03;;;;;;;;;;;;;;;20.58;65.94;99970.81;1085353;54;20433;-77
2022/08/02 03:38:05;;;;;;;;;;;;;;;20.57;66.33;99977.28;1085498;54;19947;-77
2022/08/02 03:39:09;;;;;;;;;;;;;;;20.59;66.07;99980.63;1084327;54;19938;-77
2022/08/02 03:40:12;;;;;;;;;;;;;;;20.58;66.49;99981.69;1083446;54;19946;-77
2022/08/02 03:41:18;;;;;;;;;;;;;;;20.59;66.30;99983.34;1083577;54;19950;-77
2022/08/02 03:42:19;;;;;;;;;;;;;;;20.58;66.00;99984.41;1083514;54;19946;-77
2022/08/02 03:43:23;;;;;;;;;;;;;;;20.52;66.22;99979.78;1083492;54;20030;-77
2022/08/02 03:44:25;;;;;;;;;;;;;;;20.48;66.61;99984.81;1083630;54;19939;-77
2022/08/02 03:45:29;;;;;;;;;;;;;;;20.49;66.32;99982.94;1083441;54;19947;-77
2022/08/02 03:46:31;;;;;;;;;;;;;;;20.41;66.89;99990.25;1083034;54;19951;-77
2022/08/02 03:47:35;;;;;;;;;;;;;;;20.35;67.30;99996.53;1083068;54;19958;-76
2022/08/02 03:48:37;;;;;;;;;;;;;;;20.36;67.24;99994.63;1083430;47;19969;-77
2022/08/02 03:49:44;;;;;;;;;;;;;;;20.36;67.12;99997.34;1083597;54;20065;-77
2022/08/02 03:50:46;;;;;;;;;;;;;;;20.34;67.22;99994.84;1083599;54;19939;-77
2022/08/02 03:51:50;;;;;;;;;;;;;;;20.28;67.27;100001.13;1083536;54;20721;-77
2022/08/02 03:52:51;;;;;;;;;;;;;;;20.24;67.73;100000.72;1083838;54;20673;-77
2022/08/02 03:53:55;;;;;;;;;;;;;;;20.22;67.81;100001.97;1083841;46;19946;-77
2022/08/02 03:54:57;;;;;;;;;;;;;;;20.19;67.90;99995.06;1083566;54;20030;-77
2022/08/02 03:56:01;;;;;;;;;;;;;;;20.18;67.72;99993.41;1083690;54;19951;-77
2022/08/02 03:57:06;;;;;;;;;;;;;;;20.17;68.02;99999.06;1083589;54;19970;-77
2022/08/02 03:58:10;;;;;;;;;;;;;;;20.15;68.00;99998.41;1083519;54;19939;-77
2022/08/02 03:59:11;;;;;;;;;;;;;;;20.14;67.79;100000.31;1083693;54;20457;-77
2022/08/02 04:00:21;;;;;;;;;;;;;;;20.17;67.95;99999.06;1083872;54;19993;-77
2022/08/02 04:01:22;;;;;;;;;;;;;;;20.16;68.20;99998.22;1086088;54;19970;-76
2022/08/02 04:02:26;;;;;;;;;;;;;;;20.14;68.35;100004.88;1085041;39;20341;-76
2022/08/02 04:03:27;;;;;;;;;;;;;;;20.14;68.06;100002.16;1085547;54;19947;-77
2022/08/02 04:04:31;;;;;;;;;;;;;;;20.14;67.89;100004.88;1084836;54;20493;-77
2022/08/02 04:05:35;;;;;;;;;;;;;;;20.13;68.29;100003.22;1084960;46;19966;-76
2022/08/02 04:06:38;;;;;;;;;;;;;;;20.09;68.43;100005.50;1086080;54;19970;-77
2022/08/02 04:07:40;;;;;;;;;;;;;;;20.07;68.58;100007.63;1086353;54;19946;-77
2022/08/02 04:08:43;;;;;;;;;;;;;;;20.04;68.62;100011.56;1085446;46;19939;-78
2022/08/02 04:09:44;;;;;;;;;;;;;;;20.02;68.65;100012.81;1083818;54;19967;-78
2022/08/02 04:12:05;;;;;;;;;;;;;;;20.03;68.56;100017.22;1084007;54;19946;-80
2022/08/02 04:13:06;;;;;;;;;;;;;;;20.03;69.12;100020.75;1084062;54;19958;-80
2022/08/02 04:14:11;;;;;;;;;;;;;;;19.99;69.55;100024.94;1083899;54;20441;-79
2022/08/02 04:15:13;;;;;;;;;;;;;;;19.93;69.74;100029.31;1083929;54;19947;-80
2022/08/02 04:16:20;;;;;;;;;;;;;;;19.91;70.06;100033.28;1084085;54;20042;-79
2022/08/02 04:17:22;;;;;;;;;;;;;;;19.87;70.07;100027.44;1084891;54;19951;-78
2022/08/02 04:18:28;;;;;;;;;;;;;;;19.84;69.92;100037.81;1086009;54;19947;-78
2022/08/02 04:19:34;;;;;;;;;;;;;;;19.78;70.60;100039.47;1085838;54;19946;-79
2022/08/02 04:20:38;;;;;;;;;;;;;;;19.72;70.69;100040.28;1086155;54;19950;-79
2022/08/02 04:21:43;;;;;;;;;;;;;;;19.79;70.24;100035.69;1085473;54;19958;-78
2022/08/02 04:22:46;;;;;;;;;;;;;;;19.82;70.11;100035.31;1085382;54;19974;-77
2022/08/02 04:23:50;;;;;;;;;;;;;;;19.78;70.09;100034.88;1085168;54;19962;-77
2022/08/02 04:24:54;;;;;;;;;;;;;;;19.73;70.09;100034.69;1085473;54;20501;-78
2022/08/02 04:25:58;;;;;;;;;;;;;;;19.69;70.36;100038.81;1085860;54;19946;-78
2022/08/02 04:27:00;;;;;;;;;;;;;;;19.81;70.15;100033.63;1085970;54;19947;-78
2022/08/02 04:28:04;;;;;;;;;;;;;;;19.82;70.03;100035.31;1086023;54;19947;-77
2022/08/02 04:29:08;;;;;;;;;;;;;;;19.72;70.14;100030.28;1086043;54;20016;-78
2022/08/02 04:30:10;;;;;;;;;;;;;;;19.70;70.45;100040.50;1085686;54;19946;-77
2022/08/02 04:31:14;;;;;;;;;;;;;;;19.68;70.45;100034.44;1085567;54;19939;-78
2022/08/02 04:32:16;;;;;;;;;;;;;;;19.68;70.65;100045.28;1086026;54;19947;-78
2022/08/02 04:33:20;;;;;;;;;;;;;;;19.59;70.80;100041.09;1085704;54;20067;-77
2022/08/02 04:34:23;;;;;;;;;;;;;;;19.55;70.75;100034.44;1085619;54;19947;-77
2022/08/02 04:35:25;;;;;;;;;;;;;;;19.53;70.99;100047.34;1085573;54;19951;-77
2022/08/02 04:36:31;;;;;;;;;;;;;;;19.49;70.58;100036.06;1084657;54;19999;-77
2022/08/02 04:37:33;;;;;;;;;;;;;;;19.53;70.56;100033.78;1086318;39;20373;-77
2022/08/02 04:38:37;;;;;;;;;;;;;;;19.58;70.29;100029.44;1085659;54;19994;-78
2022/08/02 04:39:40;;;;;;;;;;;;;;;19.59;70.05;100031.09;1085158;54;19974;-77
2022/08/02 04:40:51;;;;;;;;;;;;;;;19.58;70.05;100031.28;1085100;54;19954;-78
2022/08/02 04:41:52;;;;;;;;;;;;;;;19.54;70.52;100028.16;1085245;54;19980;-78
2022/08/02 04:42:56;;;;;;;;;;;;;;;19.54;70.38;100033.56;1085423;54;19938;-77
2022/08/02 04:44:00;;;;;;;;;;;;;;;19.61;69.87;100030.88;1085392;54;19960;-77
2022/08/02 04:45:02;;;;;;;;;;;;;;;19.61;70.14;100036.31;1085469;54;19946;-78
2022/08/02 04:46:05;;;;;;;;;;;;;;;19.59;70.14;100041.09;1085450;54;20471;-77
2022/08/02 04:47:07;;;;;;;;;;;;;;;19.58;69.68;100040.28;1085870;54;19947;-78
2022/08/02 04:48:10;;;;;;;;;;;;;;;19.57;69.62;100033.16;1085429;54;19981;-78
2022/08/02 04:49:14;;;;;;;;;;;;;;;19.61;69.25;100039.00;1085620;54;19946;-77
2022/08/02 04:50:15;;;;;;;;;;;;;;;19.66;68.42;100039.22;1084211;54;19946;-78
2022/08/02 04:51:19;;;;;;;;;;;;;;;19.66;68.38;100036.50;1084644;54;19958;-79
2022/08/02 04:52:23;;;;;;;;;;;;;;;19.63;68.26;100036.94;1084611;54;19938;-79
2022/08/02 04:53:27;;;;;;;;;;;;;;;19.64;67.78;100041.34;1084356;54;19947;-77
2022/08/02 04:54:32;;;;;;;;;;;;;;;19.67;67.84;100042.78;1083990;54;19950;-77
2022/08/02 04:55:36;;;;;;;;;;;;;;;19.73;67.52;100044.66;1084630;39;20341;-77
2022/08/02 04:56:41;;;;;;;;;;;;;;;19.64;67.30;100044.03;1084112;54;20460;-76
2022/08/02 04:57:54;;;;;;;;;;;;;;;19.80;67.04;100037.38;1083637;54;19946;-77
2022/08/02 04:58:58;;;;;;;;;;;;;;;19.90;66.67;100039.75;1083456;54;19961;-77
2022/08/02 04:59:59;;;;;;;;;;;;;;;19.88;66.61;100033.69;1083927;54;19950;-77
2022/08/02 05:01:02;;;;;;;;;;;;;;;19.88;66.75;100030.97;1084696;31;20436;-77
2022/08/02 05:02:03;;;;;;;;;;;;;;;19.87;66.63;100040.13;1085105;54;19989;-78
2022/08/02 05:03:07;;;;;;;;;;;;;;;19.89;67.10;100033.47;1083698;54;19939;-77
2022/08/02 05:04:08;;;;;;;;;;;;;;;19.96;66.83;100036.19;1083803;54;20038;-77
2022/08/02 05:05:12;;;;;;;;;;;;;;;20.02;67.03;100024.53;1084198;39;20365;-77
2022/08/02 05:06:13;;;;;;;;;;;;;;;20.09;66.88;100036.22;1083887;54;19989;-77
2022/08/02 05:07:17;;;;;;;;;;;;;;;20.14;66.48;100029.31;1083945;54;19950;-78
2022/08/02 05:08:23;;;;;;;;;;;;;;;20.20;66.57;100036.63;1084833;39;20348;-78
2022/08/02 05:09:24;;;;;;;;;;;;;;;20.18;66.81;100038.72;1083401;54;19946;-78
2022/08/02 05:10:28;;;;;;;;;;;;;;;20.16;66.72;100035.38;1083545;54;19981;-77
2022/08/02 05:11:29;;;;;;;;;;;;;;;20.09;66.79;100033.50;1083533;54;19950;-77
2022/08/02 05:12:33;;;;;;;;;;;;;;;20.14;66.83;100032.03;1083821;54;19952;-77
2022/08/02 05:13:34;;;;;;;;;;;;;;;20.15;66.81;100033.69;1084053;47;19954;-78
2022/08/02 05:14:38;;;;;;;;;;;;;;;20.18;66.70;100034.09;1083817;54;19974;-78
2022/08/02 05:15:39;;;;;;;;;;;;;;;20.18;66.37;100027.88;1084329;54;19947;-78
2022/08/02 05:16:42;;;;;;;;;;;;;;;20.18;66.49;100031.41;1084300;54;19962;-78
2022/08/02 05:17:44;;;;;;;;;;;;;;;20.25;66.34;100034.13;1084856;54;19951;-78
2022/08/02 05:18:49;;;;;;;;;;;;;;;20.29;66.21;100034.53;1084619;54;19946;-78
2022/08/02 05:19:50;;;;;;;;;;;;;;;20.22;66.14;100034.53;1084996;54;19950;-79
2022/08/02 05:20:54;;;;;;;;;;;;;;;20.20;66.08;100033.91;1084715;54;19962;-78
2022/08/02 05:21:55;;;;;;;;;;;;;;;20.23;66.34;100030.78;1084649;54;19939;-78
2022/08/02 05:22:59;;;;;;;;;;;;;;;20.24;66.36;100027.88;1085021;54;19954;-78
2022/08/02 05:24:03;;;;;;;;;;;;;;;20.21;66.09;100038.31;1085375;54;19978;-77
2022/08/02 05:25:07;;;;;;;;;;;;;;;20.19;66.35;100037.69;1084701;54;19946;-78
2022/08/02 05:26:11;;;;;;;;;;;;;;;20.15;65.76;100041.84;1085063;54;20444;-77
2022/08/02 05:27:12;;;;;;;;;;;;;;;20.23;65.50;100041.63;1084872;54;19962;-79
2022/08/02 05:28:16;;;;;;;;;;;;;;;20.26;65.52;100033.91;1084777;54;19947;-81
2022/08/02 05:29:17;;;;;;;;;;;;;;;20.31;65.16;100044.13;1084963;47;19945;-77
2022/08/02 05:30:21;;;;;;;;;;;;;;;20.24;65.71;100049.56;1084744;54;19953;-77
2022/08/02 05:31:22;;;;;;;;;;;;;;;20.23;66.17;100039.75;1084729;54;19938;-77
2022/08/02 05:32:26;;;;;;;;;;;;;;;20.22;66.00;100045.38;1083950;54;19946;-77
2022/08/02 05:33:27;;;;;;;;;;;;;;;20.17;66.62;100040.56;1083495;54;19970;-77